Time;durP1;ratioP1;P1;durP2;ratioP2;P2;SDS_P1;SDS_P2;PMS_P1;PMS_P2;Temp;Humidity;BMP_temperature;BMP_pressure;BME280_temperature;BME280_humidity;BME280_pressure;Samples;Min_cycle;Max_cycle;Signal;HPM_P1;HPM_P2
2023/11/03 00:00:24;;;;;;;2.60;1.10;;;13.00;90.20;;;;;;6356899;22;20495;-81
2023/11/03 00:03:22;;;;;;;5.17;1.13;;;12.90;90.20;;;;;;6378739;22;20534;-83
2023/11/03 00:06:10;;;;;;;7.13;1.57;;;12.90;90.10;;;;;;6347059;22;20436;-81
2023/11/03 00:12:02;;;;;;;3.53;1.10;;;12.90;89.60;;;;;;6371763;22;20505;-82
2023/11/03 00:14:33;;;;;;;3.43;1.80;;;12.90;89.60;;;;;;6340955;22;20425;-82
2023/11/03 00:17:06;;;;;;;3.37;1.20;;;12.90;89.60;;;;;;6346420;22;20398;-84
2023/11/03 00:19:34;;;;;;;3.70;1.23;;;12.90;89.40;;;;;;6341048;22;20404;-83
2023/11/03 00:22:23;;;;;;;3.90;1.23;;;13.00;88.90;;;;;;6344481;22;20428;-85
2023/11/03 00:25:20;;;;;;;3.13;1.47;;;12.90;88.50;;;;;;6345176;22;20507;-84
2023/11/03 00:28:07;;;;;;;2.47;0.83;;;12.90;88.50;;;;;;6371114;22;20408;-83
2023/11/03 00:31:49;;;;;;;3.23;0.80;;;12.90;88.30;;;;;;6342458;22;20412;-84
2023/11/03 00:34:47;;;;;;;7.60;1.40;;;12.80;87.90;;;;;;6348106;22;20433;-82
2023/11/03 00:37:30;;;;;;;1.23;0.67;;;12.90;88.10;;;;;;6346036;22;20412;-83
2023/11/03 00:40:18;;;;;;;2.47;1.10;;;12.90;88.10;;;;;;6346315;22;20400;-83
2023/11/03 00:43:21;;;;;;;6.63;1.13;;;12.90;87.70;;;;;;6345085;22;20446;-82
2023/11/03 00:49:02;;;;;;;1.67;0.67;;;12.80;88.00;;;;;;6331774;22;20460;-83
2023/11/03 00:51:48;;;;;;;1.10;0.80;;;13.00;87.80;;;;;;6344540;22;20409;-82
2023/11/03 00:54:42;;;;;;;3.93;0.90;;;12.80;87.90;;;;;;6347005;22;20459;-84
2023/11/03 00:57:34;;;;;;;;;;;;;;;;;;;;;
2023/11/03 01:00:55;;;;;;;0.90;0.60;;;12.80;87.80;;;;;;6373778;22;20481;-83
2023/11/03 01:03:52;;;;;;;1.80;0.70;;;12.80;87.90;;;;;;6364458;22;20476;-84
2023/11/03 01:07:03;;;;;;;2.50;0.90;;;12.80;88.00;;;;;;6270622;22;20407;-83
2023/11/03 01:10:33;;;;;;;6.17;1.50;;;12.80;89.40;;;;;;6253243;22;20402;-82
2023/11/03 01:13:56;;;;;;;1.63;0.50;;;12.90;87.60;;;;;;6245062;22;20492;-83
2023/11/03 01:17:28;;;;;;;3.20;0.83;;;13.00;87.60;;;;;;6254463;22;20399;-84
2023/11/03 01:21:09;;;;;;;25.13;1.10;;;12.80;87.60;;;;;;6220721;22;20458;-83
2023/11/03 01:24:38;;;;;;;;;;;;;;;;;;;;;
2023/11/03 01:34:48;;;;;;;1.50;0.80;;;12.60;89.50;;;;;;6117154;23;20483;-83
2023/11/03 01:41:05;;;;;;;4.70;0.93;;;12.70;89.00;;;;;;6122023;23;20470;-85
2023/11/03 01:44:18;;;;;;;1.50;0.70;;;12.60;89.20;;;;;;6166722;23;20417;-83
2023/11/03 01:46:48;;;;;;;0.60;0.60;;;12.70;89.40;;;;;;6190622;23;20479;-83
2023/11/03 01:49:40;;;;;;;0.90;0.80;;;12.70;89.20;;;;;;6192111;23;20429;-84
2023/11/03 01:52:45;;;;;;;2.67;0.60;;;12.60;89.20;;;;;;6196860;23;20413;-84
2023/11/03 01:55:31;;;;;;;1.30;0.67;;;12.50;89.80;;;;;;6196483;23;20416;-85
2023/11/03 01:58:36;;;;;;;4.40;0.73;;;12.50;89.90;;;;;;6198753;23;20504;-84
2023/11/03 02:01:15;;;;;;;3.27;1.27;;;12.50;90.00;;;;;;6222899;23;20420;-83
2023/11/03 02:04:50;;;;;;;1.53;0.63;;;12.60;90.00;;;;;;6244029;22;20449;-83
2023/11/03 02:07:59;;;;;;;0.80;0.53;;;12.60;90.20;;;;;;6353268;22;20395;-81
2023/11/03 02:10:29;;;;;;;0.93;0.70;;;12.60;90.20;;;;;;6352291;22;20380;-85
2023/11/03 02:13:25;;;;;;;2.20;0.60;;;12.40;90.30;;;;;;6353776;22;20869;-82
2023/11/03 02:15:57;;;;;;;1.37;1.17;;;12.40;90.30;;;;;;6351984;22;20416;-82
2023/11/03 02:18:52;;;;;;;2.20;0.67;;;12.40;90.60;;;;;;6361629;22;20528;-85
2023/11/03 02:21:48;;;;;;;1.43;0.53;;;12.40;90.50;;;;;;6359013;22;20500;-82
2023/11/03 02:24:54;;;;;;;0.77;0.60;;;12.40;90.90;;;;;;6354493;22;20803;-84
2023/11/03 02:28:30;;;;;;;;;;;;;;;;;;;;;
2023/11/03 02:31:55;;;;;;;2.17;0.50;;;12.50;90.70;;;;;;6374917;22;20452;-84
2023/11/03 02:35:15;;;;;;;1.37;0.60;;;12.40;90.70;;;;;;6372986;22;20436;-85
2023/11/03 02:38:40;;;;;;;1.10;0.67;;;12.30;91.00;;;;;;6328272;22;20458;-85
2023/11/03 02:41:41;;;;;;;0.70;0.70;;;12.60;90.60;;;;;;6343810;22;20444;-83
2023/11/03 02:45:11;;;;;;;1.90;1.20;;;12.60;90.50;;;;;;6388769;22;20428;-84
2023/11/03 02:48:14;;;;;;;;;;;;;;;;;;;;;
2023/11/03 02:51:11;;;;;;;1.20;0.90;;;12.50;90.90;;;;;;6377722;22;20400;-84
2023/11/03 02:54:14;;;;;;;4.13;0.93;;;12.60;90.60;;;;;;6353547;22;20484;-86
2023/11/03 03:00:24;;;;;;;2.20;0.70;;;12.50;90.70;;;;;;6378203;22;20408;-85
2023/11/03 03:03:31;;;;;;;0.77;0.57;;;12.40;90.80;;;;;;6346918;22;20440;-84
2023/11/03 03:06:12;;;;;;;1.73;0.77;;;12.10;91.10;;;;;;6370029;22;20384;-85
2023/11/03 03:09:28;;;;;;;2.43;0.80;;;12.40;91.00;;;;;;6376919;22;20373;-83
2023/11/03 03:13:11;;;;;;;2.30;0.77;;;12.40;90.90;;;;;;6357612;22;20375;-84
2023/11/03 03:16:30;;;;;;;1.43;0.60;;;12.40;90.90;;;;;;6353623;22;20439;-83
2023/11/03 03:19:52;;;;;;;1.33;0.63;;;12.30;91.10;;;;;;6353448;22;20413;-84
2023/11/03 03:22:56;;;;;;;1.77;0.70;;;12.30;91.10;;;;;;6355833;22;20481;-85
2023/11/03 03:25:31;;;;;;;2.20;0.60;;;12.30;91.00;;;;;;6377269;22;20408;-85
2023/11/03 03:28:28;;;;;;;1.37;1.00;;;12.20;91.20;;;;;;6377416;22;20409;-83
2023/11/03 03:31:04;;;;;;;3.07;0.77;;;12.20;91.30;;;;;;6355620;22;21175;-84
2023/11/03 03:33:57;;;;;;;2.00;0.80;;;12.30;91.40;;;;;;6380647;22;20442;-84
2023/11/03 03:36:49;;;;;;;2.93;0.90;;;12.30;91.30;;;;;;6354618;22;20407;-84
2023/11/03 03:39:42;;;;;;;2.13;0.77;;;12.20;91.30;;;;;;6352234;22;20438;-84
2023/11/03 03:42:37;;;;;;;1.80;0.83;;;12.10;91.50;;;;;;6344627;22;20500;-85
2023/11/03 03:45:39;;;;;;;2.03;0.63;;;12.20;91.60;;;;;;6328433;22;20402;-85
2023/11/03 03:56:15;;;;;;;;;;;;;;;;;;;;;
2023/11/03 04:02:52;;;;;;;1.23;0.90;;;12.00;92.10;;;;;;6341845;22;20425;-84
2023/11/03 04:05:36;;;;;;;2.97;1.10;;;11.90;92.10;;;;;;6335153;22;20508;-84
2023/11/03 04:08:19;;;;;;;3.80;1.03;;;11.80;92.50;;;;;;6349810;22;20407;-84
2023/11/03 04:11:18;;;;;;;;;;;;;;;;;;;;;
2023/11/03 04:18:39;;;;;;;2.77;1.10;;;11.80;92.50;;;;;;6242989;23;20392;-84
2023/11/03 04:21:55;;;;;;;0.70;0.70;;;11.80;92.50;;;;;;6192945;23;20439;-83
2023/11/03 04:24:55;;;;;;;2.30;1.13;;;11.80;92.60;;;;;;6216536;23;20425;-86
2023/11/03 04:27:51;;;;;;;1.17;0.80;;;12.00;92.60;;;;;;6229394;23;20408;-83
2023/11/03 04:33:52;;;;;;;1.33;0.70;;;11.70;93.00;;;;;;6247124;23;20432;-84
2023/11/03 04:37:11;;;;;;;2.37;1.00;;;11.90;92.90;;;;;;6155795;23;20474;-85
2023/11/03 04:40:08;;;;;;;2.83;1.00;;;11.90;92.90;;;;;;6189753;23;20483;-84
2023/11/03 04:42:55;;;;;;;3.70;1.03;;;12.00;92.90;;;;;;6223641;23;20497;-85
2023/11/03 04:45:52;;;;;;;4.50;0.90;;;12.00;92.80;;;;;;6219158;23;20399;-84
2023/11/03 04:49:10;;;;;;;1.60;1.10;;;11.90;92.70;;;;;;6310350;22;20406;-83
2023/11/03 04:52:27;;;;;;;4.47;1.30;;;11.70;92.90;;;;;;6310791;22;20389;-82
2023/11/03 04:55:11;;;;;;;5.73;1.00;;;11.70;93.10;;;;;;6302728;22;20475;-84
2023/11/03 05:09:19;;;;;;;3.50;1.00;;;11.60;93.60;;;;;;6247904;23;20525;-85
2023/11/03 05:12:15;;;;;;;3.20;1.00;;;11.60;93.70;;;;;;6276213;22;20485;-84
2023/11/03 05:19:09;;;;;;;;;;;;;;;;;;;;;
2023/11/03 05:25:20;;;;;;;6.97;1.63;;;11.50;94.20;;;;;;6293556;22;20456;-86
2023/11/03 05:28:17;;;;;;;7.07;1.40;;;11.50;94.20;;;;;;6240382;22;20400;-86
2023/11/03 05:38:23;;;;;;;2.77;1.23;;;11.30;94.70;;;;;;6281256;22;20759;-83
2023/11/03 05:41:44;;;;;;;4.70;1.90;;;11.30;94.80;;;;;;6299067;22;20416;-83
2023/11/03 05:57:31;;;;;;;4.03;1.40;;;11.20;95.00;;;;;;6274291;22;20413;-83
2023/11/03 06:04:41;;;;;;;1.57;1.07;;;11.10;95.10;;;;;;6068685;23;20415;-84
2023/11/03 06:11:23;;;;;;;5.47;1.50;;;11.20;95.20;;;;;;6304608;22;20422;-84
2023/11/03 06:14:01;;;;;;;3.70;1.60;;;11.20;95.20;;;;;;6290281;22;20809;-84
2023/11/03 06:17:21;;;;;;;;;;;;;;;;;;;;;
2023/11/03 06:27:18;;;;;;;5.60;2.20;;;11.30;95.10;;;;;;6325819;22;20399;-87
2023/11/03 06:30:12;;;;;;;6.93;1.80;;;11.10;95.00;;;;;;6303251;22;20781;-85
2023/11/03 06:33:16;;;;;;;4.73;1.87;;;11.20;95.20;;;;;;6180330;23;20700;-82
2023/11/03 06:36:27;;;;;;;4.77;1.60;;;11.20;95.10;;;;;;6193878;23;20406;-83
2023/11/03 06:39:21;;;;;;;;;;;;;;;;;;;;;
2023/11/03 06:53:43;;;;;;;7.97;2.10;;;11.30;95.20;;;;;;6326252;22;20485;-82
2023/11/03 06:56:36;;;;;;;4.87;2.20;;;11.40;95.30;;;;;;6311131;22;20393;-83
2023/11/03 07:00:09;;;;;;;4.33;1.60;;;11.70;95.00;;;;;;6307933;22;20383;-83
2023/11/03 07:03:15;;;;;;;6.60;1.77;;;11.90;94.00;;;;;;6120442;23;20482;-83
2023/11/03 07:06:18;;;;;;;2.80;1.20;;;11.80;93.90;;;;;;6224267;23;20399;-83
2023/11/03 07:09:33;;;;;;;6.80;2.20;;;11.90;94.00;;;;;;6224951;23;20384;-82
2023/11/03 07:12:52;;;;;;;6.93;1.70;;;11.70;94.10;;;;;;6238422;23;20415;-84
2023/11/03 07:15:49;;;;;;;4.53;1.80;;;11.70;94.30;;;;;;6183554;23;20404;-85
2023/11/03 07:19:24;;;;;;;;;;;;;;;;;;;;;
2023/11/03 07:22:34;;;;;;;;;;;;;;;;;;;;;
2023/11/03 07:25:41;;;;;;;4.47;1.70;;;12.40;93.70;;;;;;6159899;23;20449;-84
2023/11/03 07:32:35;;;;;;;9.30;1.90;;;13.20;91.90;;;;;;6056396;23;20497;-83
2023/11/03 07:36:10;;;;;;;3.90;1.43;;;12.90;91.60;;;;;;6139672;23;20406;-84
2023/11/03 07:39:22;;;;;;;7.20;2.07;;;12.50;92.20;;;;;;6195261;23;20416;-84
2023/11/03 07:42:27;;;;;;;3.80;1.40;;;12.20;92.70;;;;;;6140199;23;20446;-84
2023/11/03 07:46:13;;;;;;;2.57;1.20;;;12.00;93.20;;;;;;6117557;23;20446;-84
2023/11/03 07:49:32;;;;;;;4.53;1.37;;;12.00;93.40;;;;;;6171635;23;20405;-83
2023/11/03 07:52:53;;;;;;;3.60;1.40;;;12.00;93.50;;;;;;6197189;23;20419;-82
2023/11/03 07:55:50;;;;;;;5.50;1.53;;;12.20;93.40;;;;;;6239600;22;20414;-84
2023/11/03 07:59:05;;;;;;;3.50;1.63;;;12.20;93.10;;;;;;6285631;22;20606;-84
2023/11/03 08:02:07;;;;;;;1.83;0.90;;;12.20;93.10;;;;;;6287884;22;20420;-85
2023/11/03 08:05:03;;;;;;;2.67;1.23;;;12.30;92.90;;;;;;6314011;22;20918;-85
2023/11/03 08:08:01;;;;;;;3.30;1.40;;;12.30;92.90;;;;;;6293001;22;20491;-84
2023/11/03 08:10:37;;;;;;;4.30;1.60;;;12.30;93.00;;;;;;6312215;22;20402;-85
2023/11/03 08:13:44;;;;;;;5.97;1.77;;;12.40;93.00;;;;;;6289984;22;20431;-82
2023/11/03 08:16:31;;;;;;;2.80;1.00;;;12.60;92.90;;;;;;6290816;22;20409;-85
2023/11/03 08:19:29;;;;;;;6.30;1.27;;;12.70;92.40;;;;;;6275283;22;20394;-84
2023/11/03 08:22:20;;;;;;;8.47;1.57;;;12.80;92.20;;;;;;6287720;22;20390;-84
2023/11/03 08:25:35;;;;;;;7.40;1.30;;;12.80;91.90;;;;;;6246572;22;20456;-84
2023/11/03 08:28:46;;;;;;;6.60;1.10;;;12.90;92.00;;;;;;6272355;22;20411;-84
2023/11/03 08:31:19;;;;;;;3.00;1.00;;;13.00;91.80;;;;;;6272572;22;20429;-83
2023/11/03 08:34:23;;;;;;;3.50;1.20;;;13.10;91.60;;;;;;6166472;23;20410;-85
2023/11/03 08:41:02;;;;;;;2.97;1.47;;;12.90;91.70;;;;;;6181313;23;20464;-83
2023/11/03 08:43:59;;;;;;;3.00;1.30;;;12.80;91.80;;;;;;6168463;23;20456;-82
2023/11/03 08:47:16;;;;;;;;;;;;;;;;;;;;;
2023/11/03 08:50:21;;;;;;;2.40;1.10;;;12.60;92.10;;;;;;6171592;23;20440;-84
2023/11/03 08:53:05;;;;;;;7.77;1.30;;;12.60;92.90;;;;;;6164877;23;20469;-83
2023/11/03 08:56:05;;;;;;;2.47;1.50;;;12.70;92.50;;;;;;6185554;23;20405;-83
2023/11/03 08:58:43;;;;;;;3.93;1.30;;;12.60;92.70;;;;;;6193032;23;20448;-83
2023/11/03 09:01:43;;;;;;;4.40;1.67;;;12.60;92.60;;;;;;6170581;23;20406;-83
2023/11/03 09:04:33;;;;;;;5.03;1.10;;;12.50;92.80;;;;;;6181641;23;20425;-83
2023/11/03 09:07:32;;;;;;;1.47;1.30;;;12.60;92.80;;;;;;6208688;22;20407;-84
2023/11/03 09:10:23;;;;;;;5.43;1.73;;;12.60;92.80;;;;;;6292309;22;20401;-83
2023/11/03 09:13:19;;;;;;;3.90;2.13;;;12.60;92.60;;;;;;6290071;22;20426;-81
2023/11/03 09:15:57;;;;;;;6.30;1.47;;;12.60;92.70;;;;;;6288107;22;20429;-84
2023/11/03 09:19:13;;;;;;;3.57;1.60;;;12.60;92.90;;;;;;6317856;22;20410;-83
2023/11/03 09:21:38;;;;;;;3.90;1.60;;;12.70;92.60;;;;;;6217114;23;20388;-84
2023/11/03 09:24:10;;;;;;;4.87;1.70;;;12.80;92.20;;;;;;6196405;23;20713;-84
2023/11/03 09:26:56;;;;;;;2.63;1.00;;;13.00;91.90;;;;;;6195391;23;20401;-84
2023/11/03 09:29:32;;;;;;;6.23;3.00;;;13.00;91.90;;;;;;6197263;23;20408;-84
2023/11/03 09:32:48;;;;;;;;;;;;;;;;;;;;;
2023/11/03 09:35:33;;;;;;;2.97;0.80;;;13.40;91.20;;;;;;6227325;23;20396;-83
2023/11/03 09:38:21;;;;;;;4.10;1.57;;;13.30;90.70;;;;;;6226413;23;20364;-82
2023/11/03 09:41:12;;;;;;;3.23;1.20;;;13.60;90.30;;;;;;6203568;23;20409;-82
2023/11/03 09:43:56;;;;;;;9.03;1.50;;;13.60;90.10;;;;;;6190850;23;20455;-84
2023/11/03 09:46:53;;;;;;;4.43;1.00;;;13.70;89.80;;;;;;6137162;23;20459;-84
2023/11/03 09:49:30;;;;;;;4.13;1.13;;;14.20;88.40;;;;;;6154295;23;20413;-83
2023/11/03 09:52:23;;;;;;;1.93;1.00;;;14.60;86.70;;;;;;6189586;23;20389;-84
2023/11/03 09:55:55;;;;;;;6.80;1.33;;;15.00;84.70;;;;;;6199456;23;20538;-84
2023/11/03 09:58:48;;;;;;;7.57;1.53;;;15.10;83.70;;;;;;6239999;22;20425;-84
2023/11/03 10:01:27;;;;;;;2.53;1.30;;;14.80;83.60;;;;;;6290725;22;20433;-84
2023/11/03 10:04:17;;;;;;;4.93;1.20;;;14.40;84.40;;;;;;6299286;22;20438;-84
2023/11/03 10:06:56;;;;;;;2.00;1.03;;;14.50;85.40;;;;;;6295296;22;20406;-83
2023/11/03 10:09:52;;;;;;;5.10;1.73;;;14.60;84.30;;;;;;6307446;22;20747;-84
2023/11/03 10:12:35;;;;;;;9.43;1.67;;;14.40;84.80;;;;;;6294883;22;20440;-84
2023/11/03 10:16:21;;;;;;;7.27;1.50;;;14.30;85.50;;;;;;6221604;23;20880;-84
2023/11/03 10:19:21;;;;;;;2.93;1.17;;;14.40;85.00;;;;;;6199012;23;21035;-84
2023/11/03 10:22:42;;;;;;;4.30;1.27;;;14.50;84.20;;;;;;6179486;23;20405;-83
2023/11/03 10:25:35;;;;;;;4.50;1.00;;;14.60;84.30;;;;;;6197502;23;20425;-83
2023/11/03 10:28:26;;;;;;;7.83;1.80;;;14.30;84.70;;;;;;6198243;23;20938;-84
2023/11/03 10:31:21;;;;;;;3.13;1.53;;;14.40;85.10;;;;;;6197842;23;20416;-84
2023/11/03 10:34:02;;;;;;;4.50;1.50;;;14.60;84.80;;;;;;6220629;23;20464;-83
2023/11/03 10:36:41;;;;;;;4.07;1.80;;;14.50;85.10;;;;;;6191594;23;20416;-84
2023/11/03 10:39:24;;;;;;;1.80;0.90;;;14.10;85.20;;;;;;6188914;23;20408;-84
2023/11/03 10:42:10;;;;;;;1.60;1.03;;;14.10;86.70;;;;;;6193130;23;20424;-83
2023/11/03 10:44:57;;;;;;;4.10;1.37;;;14.40;85.60;;;;;;6235062;22;20446;-83
2023/11/03 10:48:03;;;;;;;5.73;1.10;;;14.40;85.60;;;;;;6271326;22;20769;-84
2023/11/03 10:51:16;;;;;;;5.20;1.33;;;14.30;86.70;;;;;;6314152;22;20452;-84
2023/11/03 10:54:47;;;;;;;4.67;1.30;;;14.50;85.90;;;;;;6275438;22;20418;-83
2023/11/03 10:57:54;;;;;;;3.47;1.17;;;14.40;85.50;;;;;;6290838;22;20379;-83
2023/11/03 11:00:54;;;;;;;5.00;2.20;;;14.30;86.10;;;;;;6283143;22;20422;-84
2023/11/03 11:04:00;;;;;;;4.10;1.30;;;13.90;87.20;;;;;;6288871;22;21037;-85
2023/11/03 11:07:16;;;;;;;5.87;1.70;;;13.80;87.50;;;;;;6286631;22;20469;-84
2023/11/03 11:10:14;;;;;;;4.67;1.27;;;14.00;87.40;;;;;;6289422;22;20446;-84
2023/11/03 11:12:52;;;;;;;7.33;1.73;;;14.10;86.90;;;;;;6286290;22;20420;-85
2023/11/03 11:15:27;;;;;;;1.90;1.30;;;14.30;87.20;;;;;;6288905;22;20489;-83
2023/11/03 11:18:20;;;;;;;1.73;1.00;;;14.40;86.50;;;;;;6289989;22;20413;-84
2023/11/03 11:21:34;;;;;;;7.40;2.53;;;14.30;86.60;;;;;;6293073;22;20464;-83
2023/11/03 11:24:26;;;;;;;5.50;1.20;;;14.20;87.00;;;;;;6315984;22;20435;-83
2023/11/03 11:27:25;;;;;;;5.63;1.27;;;14.30;87.20;;;;;;6209878;22;20398;-85
2023/11/03 11:30:37;;;;;;;2.17;1.17;;;14.30;86.30;;;;;;6289087;22;20414;-84
2023/11/03 11:33:16;;;;;;;5.00;1.50;;;14.10;86.60;;;;;;6289666;22;20490;-83
2023/11/03 11:35:56;;;;;;;5.00;1.37;;;14.50;85.80;;;;;;6290812;22;20489;-84
2023/11/03 11:38:53;;;;;;;5.70;1.53;;;14.40;85.70;;;;;;6311559;22;20429;-83
2023/11/03 11:41:42;;;;;;;2.40;1.17;;;14.30;86.10;;;;;;6290431;22;20467;-84
2023/11/03 11:44:31;;;;;;;5.53;1.30;;;14.50;85.90;;;;;;6289814;22;20951;-82
2023/11/03 11:47:05;;;;;;;3.67;1.10;;;14.70;84.50;;;;;;6287445;22;20402;-83
2023/11/03 11:49:46;;;;;;;2.40;1.20;;;14.60;84.00;;;;;;6289747;22;20398;-84
2023/11/03 11:52:30;;;;;;;2.63;1.33;;;14.70;83.90;;;;;;6314911;22;20719;-84
2023/11/03 11:55:04;;;;;;;4.90;1.37;;;14.70;84.00;;;;;;6289235;22;20430;-84
2023/11/03 11:57:50;;;;;;;2.30;1.10;;;14.80;84.30;;;;;;6316945;22;20410;-83
2023/11/03 12:01:03;;;;;;;2.60;1.03;;;14.90;83.40;;;;;;6282008;22;20802;-85
2023/11/03 12:04:01;;;;;;;4.93;1.00;;;14.70;84.00;;;;;;6289427;22;20449;-84
2023/11/03 12:23:26;;;;;;;2.60;1.50;;;14.60;84.60;;;;;;6095687;23;20388;-84
2023/11/03 12:26:47;;;;;;;;;;;;;;;;;;;;;
2023/11/03 12:30:20;;;;;;;3.00;1.47;;;14.60;83.60;;;;;;6059141;23;20417;-83
2023/11/03 12:33:47;;;;;;;3.63;1.90;;;15.00;82.50;;;;;;6064342;23;20423;-83
2023/11/03 12:45:15;;;;;;;7.60;1.60;;;15.00;83.00;;;;;;6073640;23;20486;-84
2023/11/03 12:48:23;;;;;;;4.00;1.60;;;15.10;82.10;;;;;;6112645;23;20411;-85
2023/11/03 12:51:09;;;;;;;5.20;1.30;;;15.00;82.50;;;;;;6186098;23;20500;-84
2023/11/03 13:01:11;;;;;;;;;;;;;;;;;;;;;
2023/11/03 13:04:02;;;;;;;4.20;1.27;;;15.00;79.90;;;;;;6127903;23;20491;-85
2023/11/03 13:07:13;;;;;;;2.63;1.00;;;14.70;80.70;;;;;;6234851;23;20539;-86
2023/11/03 13:09:56;;;;;;;5.80;1.60;;;14.70;80.50;;;;;;6222231;23;20577;-87
2023/11/03 13:12:50;;;;;;;4.10;1.20;;;14.80;79.70;;;;;;6223527;22;20933;-85
2023/11/03 13:15:35;;;;;;;2.30;1.47;;;15.00;80.00;;;;;;6309063;22;20508;-85
2023/11/03 13:19:09;;;;;;;2.70;1.27;;;15.10;79.40;;;;;;6135954;23;20398;-84
2023/11/03 13:22:14;;;;;;;3.57;1.40;;;14.90;78.40;;;;;;6133099;23;20395;-83
2023/11/03 13:25:10;;;;;;;8.47;1.67;;;14.70;79.60;;;;;;6137559;23;20458;-84
2023/11/03 13:28:45;;;;;;;4.97;1.17;;;15.00;78.30;;;;;;6154255;23;20419;-85
2023/11/03 13:31:49;;;;;;;2.60;1.23;;;14.90;78.00;;;;;;6123609;23;20438;-83
2023/11/03 13:35:14;;;;;;;2.90;2.10;;;14.60;78.20;;;;;;6156001;23;20746;-83
2023/11/03 13:38:13;;;;;;;4.90;1.00;;;14.60;79.50;;;;;;6134139;23;20457;-84
2023/11/03 13:41:16;;;;;;;2.90;1.30;;;14.50;79.30;;;;;;6154480;23;20800;-82
2023/11/03 13:47:26;;;;;;;2.23;1.00;;;14.70;78.50;;;;;;6152684;23;20429;-86
2023/11/03 13:50:38;;;;;;;2.40;0.97;;;14.70;77.90;;;;;;6134467;23;20411;-87
2023/11/03 13:53:41;;;;;;;1.53;1.10;;;14.50;78.90;;;;;;6136739;23;20435;-82
2023/11/03 13:56:49;;;;;;;4.73;1.70;;;14.50;78.70;;;;;;6305195;22;20528;-87
2023/11/03 13:59:49;;;;;;;2.60;0.90;;;14.60;78.90;;;;;;6296254;22;20478;-85
2023/11/03 14:02:47;;;;;;;2.80;1.20;;;14.60;78.90;;;;;;6314401;22;20411;-86
2023/11/03 14:05:33;;;;;;;4.37;1.03;;;14.40;79.00;;;;;;6311511;22;20438;-87
2023/11/03 14:08:23;;;;;;;6.80;1.73;;;14.20;79.40;;;;;;6289048;22;20409;-86
2023/11/03 14:11:28;;;;;;;4.87;1.77;;;14.10;80.40;;;;;;6259193;22;20493;-85
2023/11/03 14:15:00;;;;;;;3.27;0.90;;;14.20;79.90;;;;;;6258193;22;20978;-84
2023/11/03 14:17:41;;;;;;;6.37;1.47;;;14.00;80.00;;;;;;6270262;22;20432;-85
2023/11/03 14:20:34;;;;;;;2.10;1.43;;;14.10;80.30;;;;;;6269645;22;20402;-86
2023/11/03 14:24:03;;;;;;;3.07;0.90;;;14.30;79.10;;;;;;6283254;22;20423;-84
2023/11/03 14:27:18;;;;;;;1.87;1.47;;;14.10;79.00;;;;;;6280887;22;21412;-85
2023/11/03 14:30:05;;;;;;;2.73;1.17;;;14.10;80.90;;;;;;6174054;22;20475;-85
2023/11/03 14:35:57;;;;;;;4.43;1.43;;;13.70;81.00;;;;;;6335030;22;20414;-85
2023/11/03 14:38:50;;;;;;;2.43;1.20;;;14.00;81.80;;;;;;6335048;22;20431;-86
2023/11/03 14:41:49;;;;;;;5.23;1.00;;;14.10;81.10;;;;;;6308376;22;20410;-84
2023/11/03 14:44:17;;;;;;;3.90;1.97;;;14.10;79.90;;;;;;6328601;22;20444;-85
2023/11/03 14:47:16;;;;;;;5.50;1.30;;;14.00;79.80;;;;;;6336937;22;20408;-84
2023/11/03 14:50:40;;;;;;;4.03;1.30;;;13.90;79.60;;;;;;6341615;22;20412;-85
2023/11/03 14:53:25;;;;;;;6.20;1.90;;;13.80;80.20;;;;;;6350694;22;20423;-83
2023/11/03 14:56:02;;;;;;;8.30;3.07;;;13.70;80.30;;;;;;6341649;22;20408;-86
2023/11/03 14:59:24;;;;;;;;;;;;;;;;;;;;;
2023/11/03 15:02:47;;;;;;;3.37;1.60;;;13.60;79.70;;;;;;6369569;22;20464;-85
2023/11/03 15:05:44;;;;;;;10.83;4.20;;;13.80;78.50;;;;;;6248460;23;20448;-85
2023/11/03 15:08:35;;;;;;;6.50;2.43;;;13.80;78.80;;;;;;6225798;23;20545;-84
2023/11/03 15:11:23;;;;;;;2.43;0.90;;;13.50;79.50;;;;;;6250653;23;20509;-85
2023/11/03 15:14:41;;;;;;;4.30;1.23;;;13.40;80.30;;;;;;6230445;23;20992;-84
2023/11/03 15:17:53;;;;;;;6.23;2.20;;;13.60;80.90;;;;;;6154417;23;20486;-85
2023/11/03 15:24:34;;;;;;;3.23;1.50;;;13.70;80.30;;;;;;6285158;22;20442;-85
2023/11/03 15:27:38;;;;;;;2.70;1.50;;;13.70;79.80;;;;;;6252105;22;20455;-86
2023/11/03 15:30:38;;;;;;;6.10;1.37;;;13.60;79.90;;;;;;6343786;22;20425;-84
2023/11/03 15:33:26;;;;;;;1.53;1.27;;;13.40;79.80;;;;;;6366937;22;21197;-86
2023/11/03 15:36:26;;;;;;;2.73;1.27;;;13.40;80.40;;;;;;6340598;22;20793;-84
2023/11/03 15:39:01;;;;;;;5.40;1.50;;;13.50;80.20;;;;;;6366089;22;20403;-85
2023/11/03 15:42:10;;;;;;;4.07;1.97;;;13.40;80.20;;;;;;6339448;22;20443;-85
2023/11/03 15:44:44;;;;;;;4.13;1.53;;;13.30;80.50;;;;;;6238377;22;21492;-85
2023/11/03 15:47:26;;;;;;;3.73;1.20;;;13.30;80.70;;;;;;6244700;22;20492;-86
2023/11/03 15:53:14;;;;;;;1.93;1.13;;;13.10;81.20;;;;;;6269214;22;20417;-86
2023/11/03 15:56:01;;;;;;;5.33;1.30;;;13.20;81.70;;;;;;6340098;22;20400;-85
2023/11/03 15:58:31;;;;;;;3.90;1.53;;;13.20;81.50;;;;;;6366826;22;20388;-86
2023/11/03 16:01:17;;;;;;;5.83;1.80;;;13.10;81.50;;;;;;6338835;22;20519;-84
2023/11/03 16:03:51;;;;;;;7.47;1.27;;;13.00;81.60;;;;;;6339757;22;20444;-84
2023/11/03 16:06:39;;;;;;;6.47;1.60;;;13.00;82.20;;;;;;6364392;22;20461;-83
2023/11/03 16:09:28;;;;;;;2.90;1.30;;;12.90;82.50;;;;;;6295994;22;20418;-85
2023/11/03 16:12:04;;;;;;;5.17;1.30;;;12.90;82.80;;;;;;6274005;22;20438;-84
2023/11/03 16:15:00;;;;;;;6.63;2.33;;;12.90;82.90;;;;;;6273142;22;20422;-87
2023/11/03 16:18:28;;;;;;;3.57;1.50;;;12.80;83.30;;;;;;6275870;22;20414;-85
2023/11/03 16:21:36;;;;;;;2.13;1.53;;;12.90;83.70;;;;;;6298937;22;20402;-85
2023/11/03 16:24:34;;;;;;;3.90;1.43;;;12.70;83.70;;;;;;6261180;22;20497;-84
2023/11/03 16:27:24;;;;;;;2.83;1.77;;;12.70;84.50;;;;;;6276755;22;20433;-85
2023/11/03 16:30:12;;;;;;;5.67;3.40;;;12.80;84.40;;;;;;6274685;22;20927;-85
2023/11/03 16:32:58;;;;;;;4.80;1.67;;;12.80;84.50;;;;;;6298399;22;20456;-85
2023/11/03 16:35:38;;;;;;;5.87;1.57;;;12.70;84.50;;;;;;6300089;22;20429;-84
2023/11/03 16:41:42;;;;;;;6.13;2.33;;;12.50;85.20;;;;;;6365087;22;20412;-84
2023/11/03 16:44:49;;;;;;;3.57;2.20;;;12.60;85.70;;;;;;6342196;22;20463;-84
2023/11/03 16:47:25;;;;;;;5.90;2.40;;;12.70;85.30;;;;;;6368500;22;20438;-86
2023/11/03 16:50:24;;;;;;;5.80;2.90;;;12.60;85.20;;;;;;6343974;22;20409;-85
2023/11/03 16:53:21;;;;;;;3.83;2.50;;;12.50;85.00;;;;;;6354574;22;20404;-87
2023/11/03 16:56:03;;;;;;;2.30;1.70;;;12.40;85.70;;;;;;6326735;22;20423;-85
2023/11/03 16:58:58;;;;;;;3.23;2.07;;;12.40;85.70;;;;;;6334730;22;20516;-86
2023/11/03 17:02:05;;;;;;;4.00;2.60;;;12.40;86.00;;;;;;6340787;22;20829;-87
2023/11/03 17:04:48;;;;;;;6.20;2.03;;;12.50;86.00;;;;;;6340634;22;20464;-84
2023/11/03 17:07:38;;;;;;;4.00;2.10;;;12.50;85.80;;;;;;6365381;22;20404;-85
2023/11/03 17:10:42;;;;;;;3.00;2.00;;;12.50;85.70;;;;;;6328706;22;20809;-84
2023/11/03 17:17:52;;;;;;;3.10;2.10;;;12.30;85.80;;;;;;6175401;23;20427;-85
2023/11/03 17:20:33;;;;;;;5.93;1.97;;;12.30;86.00;;;;;;6219405;23;20431;-85
2023/11/03 17:23:41;;;;;;;8.10;1.97;;;12.20;86.60;;;;;;6217171;23;20439;-84
2023/11/03 17:26:44;;;;;;;2.00;1.40;;;12.30;86.90;;;;;;6287775;22;20404;-84
2023/11/03 17:29:25;;;;;;;3.67;1.70;;;12.20;86.90;;;;;;6341027;22;20553;-83
2023/11/03 17:31:58;;;;;;;6.77;2.10;;;12.10;86.60;;;;;;6344707;22;20465;-84
2023/11/03 17:34:49;;;;;;;2.70;1.80;;;12.10;87.00;;;;;;6346483;22;20436;-86
2023/11/03 17:37:30;;;;;;;3.23;1.70;;;12.10;86.40;;;;;;6342547;22;20453;-86
2023/11/03 17:43:31;;;;;;;3.77;2.37;;;12.00;87.00;;;;;;6376088;22;20412;-87
2023/11/03 17:50:08;;;;;;;3.30;1.70;;;11.90;87.10;;;;;;6258184;23;20531;-85
2023/11/03 17:53:43;;;;;;;3.90;1.80;;;11.90;87.30;;;;;;6227697;23;20406;-85
2023/11/03 18:00:32;;;;;;;3.73;1.53;;;11.80;87.60;;;;;;6315853;22;20405;-85
2023/11/03 18:03:16;;;;;;;5.40;1.83;;;11.70;87.80;;;;;;6357425;22;20407;-86
2023/11/03 18:06:05;;;;;;;4.57;1.50;;;11.70;87.70;;;;;;6364697;22;20431;-86
2023/11/03 18:09:00;;;;;;;4.07;1.77;;;11.70;88.00;;;;;;6386112;22;20420;-86
2023/11/03 18:11:57;;;;;;;2.10;1.70;;;11.80;88.90;;;;;;6355399;22;20412;-86
2023/11/03 18:14:32;;;;;;;3.83;2.00;;;11.70;88.10;;;;;;6343641;22;21054;-86
2023/11/03 18:17:28;;;;;;;3.30;2.00;;;11.60;88.80;;;;;;6340025;22;20946;-83
2023/11/03 18:20:17;;;;;;;5.63;2.00;;;11.60;89.10;;;;;;6345679;22;20412;-86
2023/11/03 18:22:53;;;;;;;3.90;1.80;;;11.60;89.00;;;;;;6306630;22;20410;-83
2023/11/03 18:25:53;;;;;;;3.90;2.03;;;11.70;89.40;;;;;;6368768;22;20485;-85
2023/11/03 18:28:58;;;;;;;7.80;2.87;;;11.70;89.00;;;;;;6351688;22;20495;-86
2023/11/03 18:32:06;;;;;;;9.57;2.93;;;11.60;89.40;;;;;;6357596;22;20431;-86
2023/11/03 18:39:04;;;;;;;4.33;2.00;;;11.80;88.90;;;;;;6323895;22;21313;-83
2023/11/03 18:42:01;;;;;;;5.33;1.80;;;11.70;88.80;;;;;;6351751;22;20375;-84
2023/11/03 18:47:56;;;;;;;3.70;2.53;;;11.50;89.50;;;;;;6339522;22;20445;-84
2023/11/03 18:54:40;;;;;;;2.83;2.17;;;11.50;90.00;;;;;;6353246;22;20479;-85